Terminal Aerodrome Forecast
Issued by NWS

Home | Current Version | Previous Version | Text Only | Print | Product List | Glossary Off
Versions: 1 2 3 4 5 6 7 8 9 10 11 12 13 14 15 16 17 18 19 20

000
FTUS43 KUNR 212329
TAFGCC
TAF
KGCC 212329Z 2200/2224 27022G32KT P6SM VCSH BKN060
     FM220300 24016KT P6SM BKN100=

USA.gov is the U.S. government's official web portal to all federal, state and local government web resources and services.